• Join FlightAware (Why Join?)
  • Login
  • US Flag 
05:41PM EDT


 

Airport Tracker/Info


-or-


 

Live Flight TrackerFlight Track Log ✈ AMF1937 ✈ 03-May-2013 ✈ KONT - KBUR

Flight Track Log - Related Links

Times and Time Zones

All times are in EDT time to prevent confusion due to time zone crossing. See the AMF1937 flight status page for this flight to view local times or setup timezone preferences in your user account.

Time Position Orientation Groundspeed Altitude Reporting Facility
EDT Latitude Longitude Course Direction KTS MPH feet Rate Location/Type
10:16PM 34.0500 -117.6500 270° West 147 169 3,400  Level Southern California TRACON
10:17PM 34.0500 -117.7000 270° West 160 184 4,900 1,320 Climbing Southern California TRACON
10:18PM 34.0500 -117.7667 270° West 175 201 6,100 1,380 Climbing Southern California TRACON
10:19PM 34.0667 -117.8167 292° West 176 203 7,600 900 Climbing Southern California TRACON
10:20PM 34.0833 -117.8833 287° West 204 235 8,000 180 Climbing Southern California TRACON
10:21PM 34.1000 -117.9500 287° West 196 226 8,000  Level Southern California TRACON
10:22PM 34.1167 -118.0000 292° West 194 223 8,000  Level Southern California TRACON
10:23PM 34.1333 -118.0372 298° West 196 226 8,000 -540 Level Los Angeles Center
10:24PM 34.1425 -118.1047 279° West 199 229 7,200 -840 Descending Los Angeles Center
10:25PM 34.1483 -118.1783 275° West 210 242 6,300 -600 Descending Los Angeles Center
10:26PM 34.1528 -118.2461 275° West 210 242 6,000 -180 Descending Los Angeles Center
10:27PM 34.1500 -118.3078 267° West 198 228 6,000  Level Los Angeles Center
10:28PM 34.1475 -118.3683 267° West 189 217 6,000  Level Los Angeles Center
10:28PM 34.1500 -118.4000 275° West 192 221 6,000  Level Southern California TRACON
10:29PM 34.1500 -118.4500 270° West 173 199 6,000 -60 Level Southern California TRACON
10:30PM 34.1500 -118.5167 270° West 179 206 5,900 -780 Descending Southern California TRACON
10:31PM 34.1500 -118.5833 270° West 195 224 4,500 -1,260 Descending Southern California TRACON
10:32PM 34.1667 -118.5833 360° North 209 241 3,400 -720 Descending Southern California TRACON
10:33PM 34.2000 -118.5333 51° Northeast 196 226 3,100 -240 Descending Southern California TRACON
10:34PM 34.2000 -118.4833 90° East 183 211 3,000 -420 Descending Southern California TRACON
10:35PM 34.2000 -118.4167 90° East 148 170 2,300 -720 Descending Southern California TRACON